sensor_id;sensor_type;location;lat;lon;timestamp;pressure;altitude;pressure_sealevel;temperature;humidity
84032;BME280;74113;46.556;24.570;2024-02-28T00:00:07;98347.57;;;7.15;61.49
84032;BME280;74113;46.556;24.570;2024-02-28T00:02:59;98351.29;;;7.11;61.68
84032;BME280;74113;46.556;24.570;2024-02-28T00:05:27;98353.13;;;7.06;61.68
84032;BME280;74113;46.556;24.570;2024-02-28T00:07:56;98353.73;;;7.02;61.92
84032;BME280;74113;46.556;24.570;2024-02-28T00:10:25;98350.04;;;6.98;62.03
84032;BME280;74113;46.556;24.570;2024-02-28T00:12:53;98352.68;;;6.96;61.95
84032;BME280;74113;46.556;24.570;2024-02-28T00:15:22;98353.09;;;6.93;62.07
84032;BME280;74113;46.556;24.570;2024-02-28T00:17:54;98352.08;;;6.92;62.29
84032;BME280;74113;46.556;24.570;2024-02-28T00:20:23;98352.95;;;6.91;62.23
84032;BME280;74113;46.556;24.570;2024-02-28T00:22:55;98350.02;;;6.91;62.11
84032;BME280;74113;46.556;24.570;2024-02-28T00:25:23;98343.30;;;6.91;62.09
84032;BME280;74113;46.556;24.570;2024-02-28T00:27:52;98340.20;;;6.91;61.80
84032;BME280;74113;46.556;24.570;2024-02-28T00:30:21;98342.07;;;6.92;62.00
84032;BME280;74113;46.556;24.570;2024-02-28T00:32:49;98342.75;;;6.93;61.55
84032;BME280;74113;46.556;24.570;2024-02-28T00:35:18;98342.68;;;6.96;61.64
84032;BME280;74113;46.556;24.570;2024-02-28T00:37:46;98343.80;;;6.99;61.94
84032;BME280;74113;46.556;24.570;2024-02-28T00:40:14;98343.80;;;7.00;61.94
84032;BME280;74113;46.556;24.570;2024-02-28T00:42:42;98342.86;;;6.96;61.81
84032;BME280;74113;46.556;24.570;2024-02-28T00:45:11;98348.61;;;6.93;61.77
84032;BME280;74113;46.556;24.570;2024-02-28T00:47:39;98343.98;;;6.92;61.87
84032;BME280;74113;46.556;24.570;2024-02-28T00:50:09;98346.80;;;6.89;61.61
84032;BME280;74113;46.556;24.570;2024-02-28T00:52:37;98348.71;;;6.89;61.63
84032;BME280;74113;46.556;24.570;2024-02-28T00:55:06;98344.96;;;6.86;61.66
84032;BME280;74113;46.556;24.570;2024-02-28T00:57:35;98345.48;;;6.86;61.52
84032;BME280;74113;46.556;24.570;2024-02-28T01:00:05;98340.77;;;6.89;61.33
84032;BME280;74113;46.556;24.570;2024-02-28T01:02:33;98341.95;;;6.90;61.38
84032;BME280;74113;46.556;24.570;2024-02-28T01:05:02;98343.05;;;6.87;61.95
84032;BME280;74113;46.556;24.570;2024-02-28T01:07:30;98344.16;;;6.84;61.69
84032;BME280;74113;46.556;24.570;2024-02-28T01:09:59;98350.38;;;6.83;61.62
84032;BME280;74113;46.556;24.570;2024-02-28T01:12:28;98351.40;;;6.84;61.35
84032;BME280;74113;46.556;24.570;2024-02-28T01:14:56;98353.69;;;6.82;61.47
84032;BME280;74113;46.556;24.570;2024-02-28T01:17:25;98347.70;;;6.79;61.68
84032;BME280;74113;46.556;24.570;2024-02-28T01:19:53;98349.48;;;6.77;61.44
84032;BME280;74113;46.556;24.570;2024-02-28T01:22:21;98352.31;;;6.74;61.52
84032;BME280;74113;46.556;24.570;2024-02-28T01:24:50;98357.70;;;6.71;61.67
84032;BME280;74113;46.556;24.570;2024-02-28T01:27:18;98362.05;;;6.70;61.57
84032;BME280;74113;46.556;24.570;2024-02-28T01:29:47;98360.50;;;6.70;61.40
84032;BME280;74113;46.556;24.570;2024-02-28T01:32:16;98366.15;;;6.71;61.30
84032;BME280;74113;46.556;24.570;2024-02-28T01:34:44;98365.33;;;6.70;61.79
84032;BME280;74113;46.556;24.570;2024-02-28T01:37:13;98364.20;;;6.67;61.58
84032;BME280;74113;46.556;24.570;2024-02-28T01:39:42;98363.66;;;6.67;61.59
84032;BME280;74113;46.556;24.570;2024-02-28T01:42:10;98360.91;;;6.67;61.58
84032;BME280;74113;46.556;24.570;2024-02-28T01:44:47;98362.29;;;6.67;60.95
84032;BME280;74113;46.556;24.570;2024-02-28T01:47:17;98362.60;;;6.69;61.17
84032;BME280;74113;46.556;24.570;2024-02-28T01:49:46;98367.20;;;6.71;61.23
84032;BME280;74113;46.556;24.570;2024-02-28T01:52:16;98363.73;;;6.72;61.21
84032;BME280;74113;46.556;24.570;2024-02-28T01:54:46;98360.79;;;6.72;61.40
84032;BME280;74113;46.556;24.570;2024-02-28T01:57:14;98357.56;;;6.70;61.46
84032;BME280;74113;46.556;24.570;2024-02-28T01:59:45;98359.80;;;6.71;61.15
84032;BME280;74113;46.556;24.570;2024-02-28T02:02:15;98357.26;;;6.69;61.40
84032;BME280;74113;46.556;24.570;2024-02-28T02:04:43;98361.41;;;6.68;61.56
84032;BME280;74113;46.556;24.570;2024-02-28T02:07:12;98364.54;;;6.67;61.13
84032;BME280;74113;46.556;24.570;2024-02-28T02:09:40;98359.85;;;6.68;61.53
84032;BME280;74113;46.556;24.570;2024-02-28T02:12:09;98360.13;;;6.71;61.92
84032;BME280;74113;46.556;24.570;2024-02-28T02:14:38;98362.30;;;6.75;61.96
84032;BME280;74113;46.556;24.570;2024-02-28T02:17:07;98360.73;;;6.75;61.61
84032;BME280;74113;46.556;24.570;2024-02-28T02:19:35;98358.70;;;6.74;61.40
84032;BME280;74113;46.556;24.570;2024-02-28T02:22:05;98359.58;;;6.72;61.18
84032;BME280;74113;46.556;24.570;2024-02-28T02:24:36;98364.77;;;6.71;61.20
84032;BME280;74113;46.556;24.570;2024-02-28T02:27:05;98367.73;;;6.71;60.96
84032;BME280;74113;46.556;24.570;2024-02-28T02:29:33;98371.80;;;6.73;60.88
84032;BME280;74113;46.556;24.570;2024-02-28T02:32:02;98375.39;;;6.75;60.56
84032;BME280;74113;46.556;24.570;2024-02-28T02:34:30;98374.84;;;6.76;60.59
84032;BME280;74113;46.556;24.570;2024-02-28T02:36:59;98375.52;;;6.77;60.55
84032;BME280;74113;46.556;24.570;2024-02-28T02:39:27;98376.39;;;6.77;60.62
84032;BME280;74113;46.556;24.570;2024-02-28T02:41:56;98376.95;;;6.75;60.54
84032;BME280;74113;46.556;24.570;2024-02-28T02:44:24;98386.46;;;6.73;60.44
84032;BME280;74113;46.556;24.570;2024-02-28T02:46:53;98388.79;;;6.69;60.72
84032;BME280;74113;46.556;24.570;2024-02-28T02:49:22;98391.13;;;6.65;60.85
84032;BME280;74113;46.556;24.570;2024-02-28T02:51:51;98391.87;;;6.62;60.60
84032;BME280;74113;46.556;24.570;2024-02-28T02:54:19;98399.98;;;6.61;60.65
84032;BME280;74113;46.556;24.570;2024-02-28T02:56:48;98400.38;;;6.59;60.77
84032;BME280;74113;46.556;24.570;2024-02-28T02:59:16;98402.94;;;6.52;60.66
84032;BME280;74113;46.556;24.570;2024-02-28T03:01:45;98404.80;;;6.46;60.95
84032;BME280;74113;46.556;24.570;2024-02-28T03:04:13;98407.21;;;6.37;61.18
84032;BME280;74113;46.556;24.570;2024-02-28T03:06:42;98410.66;;;6.28;61.41
84032;BME280;74113;46.556;24.570;2024-02-28T03:09:10;98408.29;;;6.16;61.48
84032;BME280;74113;46.556;24.570;2024-02-28T03:11:39;98412.29;;;6.06;61.20
84032;BME280;74113;46.556;24.570;2024-02-28T03:14:11;98409.68;;;5.97;61.78
84032;BME280;74113;46.556;24.570;2024-02-28T03:16:42;98407.61;;;5.87;61.81
84032;BME280;74113;46.556;24.570;2024-02-28T03:19:11;98403.83;;;5.75;62.68
84032;BME280;74113;46.556;24.570;2024-02-28T03:21:40;98403.13;;;5.66;62.33
84032;BME280;74113;46.556;24.570;2024-02-28T03:24:09;98403.63;;;5.57;62.71
84032;BME280;74113;46.556;24.570;2024-02-28T03:26:38;98402.52;;;5.51;63.25
84032;BME280;74113;46.556;24.570;2024-02-28T03:29:07;98401.91;;;5.46;62.90
84032;BME280;74113;46.556;24.570;2024-02-28T03:31:35;98405.73;;;5.44;63.67
84032;BME280;74113;46.556;24.570;2024-02-28T03:34:03;98411.41;;;5.44;63.05
84032;BME280;74113;46.556;24.570;2024-02-28T03:36:32;98413.44;;;5.46;63.37
84032;BME280;74113;46.556;24.570;2024-02-28T03:39:01;98419.75;;;5.50;63.80
84032;BME280;74113;46.556;24.570;2024-02-28T03:41:30;98420.02;;;5.55;63.82
84032;BME280;74113;46.556;24.570;2024-02-28T03:43:58;98418.41;;;5.57;63.12
84032;BME280;74113;46.556;24.570;2024-02-28T03:46:27;98415.86;;;5.57;63.31
84032;BME280;74113;46.556;24.570;2024-02-28T03:48:56;98424.56;;;5.60;62.88
84032;BME280;74113;46.556;24.570;2024-02-28T03:51:25;98424.86;;;5.64;62.94
84032;BME280;74113;46.556;24.570;2024-02-28T03:53:54;98428.08;;;5.67;62.71
84032;BME280;74113;46.556;24.570;2024-02-28T03:56:24;98428.58;;;5.68;62.67
84032;BME280;74113;46.556;24.570;2024-02-28T03:58:55;98431.69;;;5.67;62.68
84032;BME280;74113;46.556;24.570;2024-02-28T04:01:24;98431.55;;;5.65;62.78
84032;BME280;74113;46.556;24.570;2024-02-28T04:03:53;98429.66;;;5.65;63.16
84032;BME280;74113;46.556;24.570;2024-02-28T04:06:21;98425.52;;;5.66;62.92
84032;BME280;74113;46.556;24.570;2024-02-28T04:08:50;98424.27;;;5.68;62.75
84032;BME280;74113;46.556;24.570;2024-02-28T04:11:19;98426.82;;;5.70;62.62
84032;BME280;74113;46.556;24.570;2024-02-28T04:13:48;98423.85;;;5.72;62.61
84032;BME280;74113;46.556;24.570;2024-02-28T04:16:16;98424.02;;;5.72;62.54
84032;BME280;74113;46.556;24.570;2024-02-28T04:18:45;98425.08;;;5.71;62.58
84032;BME280;74113;46.556;24.570;2024-02-28T04:21:14;98424.91;;;5.72;62.13
84032;BME280;74113;46.556;24.570;2024-02-28T04:23:42;98424.34;;;5.73;62.21
84032;BME280;74113;46.556;24.570;2024-02-28T04:26:12;98417.54;;;5.69;62.14
84032;BME280;74113;46.556;24.570;2024-02-28T04:28:42;98420.01;;;5.66;62.17
84032;BME280;74113;46.556;24.570;2024-02-28T04:31:10;98418.95;;;5.66;62.00
84032;BME280;74113;46.556;24.570;2024-02-28T04:33:39;98418.58;;;5.69;62.90
84032;BME280;74113;46.556;24.570;2024-02-28T04:36:08;98418.55;;;5.70;62.83
84032;BME280;74113;46.556;24.570;2024-02-28T04:38:37;98422.23;;;5.67;62.41
84032;BME280;74113;46.556;24.570;2024-02-28T04:41:05;98427.80;;;5.62;62.87
84032;BME280;74113;46.556;24.570;2024-02-28T04:43:33;98430.63;;;5.58;62.41
84032;BME280;74113;46.556;24.570;2024-02-28T04:46:02;98432.88;;;5.58;62.71
84032;BME280;74113;46.556;24.570;2024-02-28T04:48:31;98437.05;;;5.55;62.70
84032;BME280;74113;46.556;24.570;2024-02-28T04:51:00;98437.45;;;5.51;62.48
84032;BME280;74113;46.556;24.570;2024-02-28T04:53:30;98439.38;;;5.49;62.61
84032;BME280;74113;46.556;24.570;2024-02-28T04:55:59;98440.64;;;5.45;62.48
84032;BME280;74113;46.556;24.570;2024-02-28T04:58:28;98438.45;;;5.42;62.87
84032;BME280;74113;46.556;24.570;2024-02-28T05:00:56;98436.30;;;5.37;62.88
84032;BME280;74113;46.556;24.570;2024-02-28T05:03:25;98440.45;;;5.36;63.24
84032;BME280;74113;46.556;24.570;2024-02-28T05:05:54;98446.81;;;5.36;63.02
84032;BME280;74113;46.556;24.570;2024-02-28T05:08:23;98450.41;;;5.37;62.76
84032;BME280;74113;46.556;24.570;2024-02-28T05:10:52;98452.11;;;5.39;62.87
84032;BME280;74113;46.556;24.570;2024-02-28T05:13:21;98452.30;;;5.38;63.13
84032;BME280;74113;46.556;24.570;2024-02-28T05:15:51;98451.63;;;5.37;62.56
84032;BME280;74113;46.556;24.570;2024-02-28T05:18:20;98454.72;;;5.37;62.39
84032;BME280;74113;46.556;24.570;2024-02-28T05:20:49;98454.02;;;5.37;62.73
84032;BME280;74113;46.556;24.570;2024-02-28T05:23:18;98457.81;;;5.37;62.88
84032;BME280;74113;46.556;24.570;2024-02-28T05:25:46;98459.19;;;5.37;62.87
84032;BME280;74113;46.556;24.570;2024-02-28T05:28:15;98464.35;;;5.37;62.98
84032;BME280;74113;46.556;24.570;2024-02-28T05:30:44;98465.36;;;5.38;62.98
84032;BME280;74113;46.556;24.570;2024-02-28T05:33:17;98470.65;;;5.40;62.56
84032;BME280;74113;46.556;24.570;2024-02-28T05:35:46;98469.83;;;5.38;62.55
84032;BME280;74113;46.556;24.570;2024-02-28T05:38:15;98477.92;;;5.37;62.67
84032;BME280;74113;46.556;24.570;2024-02-28T05:40:44;98480.67;;;5.38;62.27
84032;BME280;74113;46.556;24.570;2024-02-28T05:43:12;98484.79;;;5.39;62.54
84032;BME280;74113;46.556;24.570;2024-02-28T05:45:41;98483.92;;;5.40;61.93
84032;BME280;74113;46.556;24.570;2024-02-28T05:48:09;98487.44;;;5.46;61.75
84032;BME280;74113;46.556;24.570;2024-02-28T05:50:39;98492.91;;;5.49;61.84
84032;BME280;74113;46.556;24.570;2024-02-28T05:53:08;98492.55;;;5.50;61.84
84032;BME280;74113;46.556;24.570;2024-02-28T05:55:37;98493.77;;;5.49;61.46
84032;BME280;74113;46.556;24.570;2024-02-28T05:58:05;98492.25;;;5.46;61.71
84032;BME280;74113;46.556;24.570;2024-02-28T06:00:35;98490.02;;;5.46;61.54
84032;BME280;74113;46.556;24.570;2024-02-28T06:03:04;98496.38;;;5.47;61.40
84032;BME280;74113;46.556;24.570;2024-02-28T06:05:33;98494.58;;;5.51;61.33
84032;BME280;74113;46.556;24.570;2024-02-28T06:08:02;98494.08;;;5.50;61.14
84032;BME280;74113;46.556;24.570;2024-02-28T06:10:31;98496.13;;;5.52;60.96
84032;BME280;74113;46.556;24.570;2024-02-28T06:12:59;98498.84;;;5.54;61.14
84032;BME280;74113;46.556;24.570;2024-02-28T06:15:28;98500.13;;;5.61;61.33
84032;BME280;74113;46.556;24.570;2024-02-28T06:17:58;98497.63;;;5.65;61.20
84032;BME280;74113;46.556;24.570;2024-02-28T06:20:28;98498.73;;;5.72;61.12
84032;BME280;74113;46.556;24.570;2024-02-28T06:22:58;98499.34;;;5.78;60.86
84032;BME280;74113;46.556;24.570;2024-02-28T06:25:36;98503.90;;;5.84;60.73
84032;BME280;74113;46.556;24.570;2024-02-28T06:28:05;98511.41;;;5.90;61.21
84032;BME280;74113;46.556;24.570;2024-02-28T06:30:35;98512.01;;;5.96;60.84
84032;BME280;74113;46.556;24.570;2024-02-28T06:33:06;98512.29;;;5.99;60.51
84032;BME280;74113;46.556;24.570;2024-02-28T06:35:37;98515.46;;;6.05;60.18
84032;BME280;74113;46.556;24.570;2024-02-28T06:38:06;98514.26;;;6.05;60.34
84032;BME280;74113;46.556;24.570;2024-02-28T06:40:35;98513.23;;;6.05;60.20
84032;BME280;74113;46.556;24.570;2024-02-28T06:43:04;98513.66;;;6.10;60.13
84032;BME280;74113;46.556;24.570;2024-02-28T06:45:33;98511.70;;;6.14;59.56
84032;BME280;74113;46.556;24.570;2024-02-28T06:48:02;98512.61;;;6.20;59.84
84032;BME280;74113;46.556;24.570;2024-02-28T06:50:31;98514.73;;;6.28;59.50
84032;BME280;74113;46.556;24.570;2024-02-28T06:53:00;98517.73;;;6.34;59.30
84032;BME280;74113;46.556;24.570;2024-02-28T06:55:29;98520.24;;;6.38;58.97
84032;BME280;74113;46.556;24.570;2024-02-28T06:57:58;98516.61;;;6.39;58.97
84032;BME280;74113;46.556;24.570;2024-02-28T07:00:29;98520.52;;;6.41;58.77
84032;BME280;74113;46.556;24.570;2024-02-28T07:02:58;98518.02;;;6.46;58.45
84032;BME280;74113;46.556;24.570;2024-02-28T07:05:27;98517.55;;;6.53;58.51
84032;BME280;74113;46.556;24.570;2024-02-28T07:07:56;98520.42;;;6.56;58.57
84032;BME280;74113;46.556;24.570;2024-02-28T07:10:24;98519.65;;;6.60;58.41
84032;BME280;74113;46.556;24.570;2024-02-28T07:12:53;98517.63;;;6.67;58.51
84032;BME280;74113;46.556;24.570;2024-02-28T07:15:21;98513.93;;;6.80;58.34
84032;BME280;74113;46.556;24.570;2024-02-28T07:17:50;98511.92;;;6.94;57.60
84032;BME280;74113;46.556;24.570;2024-02-28T07:20:19;98510.23;;;7.10;57.62
84032;BME280;74113;46.556;24.570;2024-02-28T07:22:48;98508.66;;;7.18;56.92
84032;BME280;74113;46.556;24.570;2024-02-28T07:25:16;98505.66;;;7.29;56.98
84032;BME280;74113;46.556;24.570;2024-02-28T07:27:49;98506.40;;;7.43;57.09
84032;BME280;74113;46.556;24.570;2024-02-28T07:30:18;98504.89;;;7.56;56.79
84032;BME280;74113;46.556;24.570;2024-02-28T07:32:47;98499.51;;;7.65;56.26
84032;BME280;74113;46.556;24.570;2024-02-28T07:35:18;98503.16;;;7.78;55.48
84032;BME280;74113;46.556;24.570;2024-02-28T07:37:47;98498.15;;;7.93;55.51
84032;BME280;74113;46.556;24.570;2024-02-28T07:40:16;98496.34;;;8.10;55.33
84032;BME280;74113;46.556;24.570;2024-02-28T07:42:45;98498.16;;;8.27;55.96
84032;BME280;74113;46.556;24.570;2024-02-28T07:45:13;98497.25;;;8.50;54.29
84032;BME280;74113;46.556;24.570;2024-02-28T07:47:42;98495.88;;;8.68;53.19
84032;BME280;74113;46.556;24.570;2024-02-28T07:50:11;98493.06;;;8.82;54.30
84032;BME280;74113;46.556;24.570;2024-02-28T07:52:40;98494.30;;;8.94;54.09
84032;BME280;74113;46.556;24.570;2024-02-28T07:55:09;98495.56;;;9.04;54.12
84032;BME280;74113;46.556;24.570;2024-02-28T07:57:37;98493.54;;;9.08;53.09
84032;BME280;74113;46.556;24.570;2024-02-28T08:00:07;98491.54;;;9.12;52.44
84032;BME280;74113;46.556;24.570;2024-02-28T08:02:39;98488.06;;;9.12;53.21
84032;BME280;74113;46.556;24.570;2024-02-28T08:05:08;98492.55;;;9.18;53.09
84032;BME280;74113;46.556;24.570;2024-02-28T08:07:36;98489.83;;;9.28;53.52
84032;BME280;74113;46.556;24.570;2024-02-28T08:10:06;98487.83;;;9.37;53.54
84032;BME280;74113;46.556;24.570;2024-02-28T08:12:35;98490.98;;;9.48;52.99
84032;BME280;74113;46.556;24.570;2024-02-28T08:15:04;98487.46;;;9.55;52.87
84032;BME280;74113;46.556;24.570;2024-02-28T08:17:34;98486.50;;;9.63;51.94
84032;BME280;74113;46.556;24.570;2024-02-28T08:20:04;98487.52;;;9.69;52.37
84032;BME280;74113;46.556;24.570;2024-02-28T08:22:33;98488.39;;;9.75;52.72
84032;BME280;74113;46.556;24.570;2024-02-28T08:25:03;98485.78;;;9.80;51.74
84032;BME280;74113;46.556;24.570;2024-02-28T08:27:32;98479.37;;;9.86;51.83
84032;BME280;74113;46.556;24.570;2024-02-28T08:30:04;98477.68;;;9.95;52.20
84032;BME280;74113;46.556;24.570;2024-02-28T08:32:36;98476.30;;;10.06;51.96
84032;BME280;74113;46.556;24.570;2024-02-28T08:35:08;98476.49;;;10.16;52.32
84032;BME280;74113;46.556;24.570;2024-02-28T08:37:39;98476.94;;;10.28;51.63
84032;BME280;74113;46.556;24.570;2024-02-28T08:40:09;98472.76;;;10.39;51.60
84032;BME280;74113;46.556;24.570;2024-02-28T08:42:38;98472.05;;;10.50;51.07
84032;BME280;74113;46.556;24.570;2024-02-28T08:45:07;98469.94;;;10.61;51.27
84032;BME280;74113;46.556;24.570;2024-02-28T08:47:36;98471.66;;;10.70;50.69
84032;BME280;74113;46.556;24.570;2024-02-28T08:50:05;98472.52;;;10.80;50.21
84032;BME280;74113;46.556;24.570;2024-02-28T08:52:34;98469.91;;;10.90;50.44
84032;BME280;74113;46.556;24.570;2024-02-28T08:55:02;98464.09;;;11.02;50.29
84032;BME280;74113;46.556;24.570;2024-02-28T08:57:31;98461.16;;;11.10;49.28
84032;BME280;74113;46.556;24.570;2024-02-28T09:00:00;98455.95;;;11.15;49.22
84032;BME280;74113;46.556;24.570;2024-02-28T09:02:30;98457.95;;;11.26;50.39
84032;BME280;74113;46.556;24.570;2024-02-28T09:04:58;98456.73;;;11.39;50.22
84032;BME280;74113;46.556;24.570;2024-02-28T09:07:27;98456.73;;;11.53;50.58
84032;BME280;74113;46.556;24.570;2024-02-28T09:09:55;98453.48;;;11.65;50.68
84032;BME280;74113;46.556;24.570;2024-02-28T09:12:24;98456.16;;;11.72;49.15
84032;BME280;74113;46.556;24.570;2024-02-28T09:14:53;98453.18;;;11.81;49.47
84032;BME280;74113;46.556;24.570;2024-02-28T09:17:26;98455.70;;;11.92;48.88
84032;BME280;74113;46.556;24.570;2024-02-28T09:19:54;98451.63;;;12.02;49.08
84032;BME280;74113;46.556;24.570;2024-02-28T09:22:23;98454.89;;;12.11;48.32
84032;BME280;74113;46.556;24.570;2024-02-28T09:24:53;98452.96;;;12.24;48.81
84032;BME280;74113;46.556;24.570;2024-02-28T09:27:22;98450.11;;;12.38;49.01
84032;BME280;74113;46.556;24.570;2024-02-28T09:29:52;98450.66;;;12.49;48.24
84032;BME280;74113;46.556;24.570;2024-02-28T09:32:21;98451.48;;;12.59;48.43
84032;BME280;74113;46.556;24.570;2024-02-28T09:34:49;98448.90;;;12.70;47.15
84032;BME280;74113;46.556;24.570;2024-02-28T09:37:18;98450.91;;;12.79;45.89
84032;BME280;74113;46.556;24.570;2024-02-28T09:39:49;98450.84;;;12.88;47.16
84032;BME280;74113;46.556;24.570;2024-02-28T09:42:18;98449.70;;;12.98;46.81
84032;BME280;74113;46.556;24.570;2024-02-28T09:44:49;98448.79;;;13.11;47.50
84032;BME280;74113;46.556;24.570;2024-02-28T09:47:18;98445.86;;;13.22;46.38
84032;BME280;74113;46.556;24.570;2024-02-28T09:49:50;98444.39;;;13.31;45.76
84032;BME280;74113;46.556;24.570;2024-02-28T09:52:20;98446.12;;;13.38;46.69
84032;BME280;74113;46.556;24.570;2024-02-28T09:54:49;98449.66;;;13.44;46.35
84032;BME280;74113;46.556;24.570;2024-02-28T09:57:18;98451.67;;;13.50;47.06
84032;BME280;74113;46.556;24.570;2024-02-28T09:59:47;98450.70;;;13.59;46.89
84032;BME280;74113;46.556;24.570;2024-02-28T10:02:23;98446.98;;;13.68;46.30
84032;BME280;74113;46.556;24.570;2024-02-28T10:04:53;98444.02;;;13.75;44.20
84032;BME280;74113;46.556;24.570;2024-02-28T10:07:22;98441.96;;;13.85;44.59
84032;BME280;74113;46.556;24.570;2024-02-28T10:09:51;98445.75;;;14.00;44.51
84032;BME280;74113;46.556;24.570;2024-02-28T10:12:20;98444.23;;;14.13;42.55
84032;BME280;74113;46.556;24.570;2024-02-28T10:14:50;98438.14;;;14.23;41.96
84032;BME280;74113;46.556;24.570;2024-02-28T10:17:19;98436.05;;;14.33;42.12
84032;BME280;74113;46.556;24.570;2024-02-28T10:19:48;98431.27;;;14.49;42.43
84032;BME280;74113;46.556;24.570;2024-02-28T10:22:17;98431.14;;;14.68;42.96
84032;BME280;74113;46.556;24.570;2024-02-28T10:24:46;98430.28;;;14.84;42.31
84032;BME280;74113;46.556;24.570;2024-02-28T10:27:16;98429.31;;;14.92;40.86
84032;BME280;74113;46.556;24.570;2024-02-28T10:29:45;98424.95;;;14.98;41.37
84032;BME280;74113;46.556;24.570;2024-02-28T10:32:14;98424.87;;;15.06;41.23
84032;BME280;74113;46.556;24.570;2024-02-28T10:34:44;98422.15;;;15.18;41.51
84032;BME280;74113;46.556;24.570;2024-02-28T10:37:14;98419.31;;;15.25;40.27
84032;BME280;74113;46.556;24.570;2024-02-28T10:39:43;98416.95;;;15.36;41.12
84032;BME280;74113;46.556;24.570;2024-02-28T10:42:14;98410.31;;;15.48;40.50
84032;BME280;74113;46.556;24.570;2024-02-28T10:44:44;98407.23;;;15.60;40.71
84032;BME280;74113;46.556;24.570;2024-02-28T10:47:14;98406.52;;;15.66;40.80
84032;BME280;74113;46.556;24.570;2024-02-28T10:49:44;98405.02;;;15.74;40.00
84032;BME280;74113;46.556;24.570;2024-02-28T10:52:14;98403.13;;;15.82;39.21
84032;BME280;74113;46.556;24.570;2024-02-28T10:54:45;98403.06;;;15.87;40.18
84032;BME280;74113;46.556;24.570;2024-02-28T10:57:17;98401.42;;;15.91;38.54
84032;BME280;74113;46.556;24.570;2024-02-28T10:59:47;98399.69;;;15.99;40.34
84032;BME280;74113;46.556;24.570;2024-02-28T11:02:17;98398.09;;;16.09;39.73
84032;BME280;74113;46.556;24.570;2024-02-28T11:04:46;98395.71;;;16.19;37.92
84032;BME280;74113;46.556;24.570;2024-02-28T11:07:20;98393.09;;;16.22;37.27
84032;BME280;74113;46.556;24.570;2024-02-28T11:09:54;98390.52;;;16.27;36.68
84032;BME280;74113;46.556;24.570;2024-02-28T11:12:28;98390.46;;;16.40;37.63
84032;BME280;74113;46.556;24.570;2024-02-28T11:15:01;98386.38;;;16.55;39.35
84032;BME280;74113;46.556;24.570;2024-02-28T11:17:31;98384.39;;;16.62;36.93
84032;BME280;74113;46.556;24.570;2024-02-28T11:20:11;98381.63;;;16.67;35.60
84032;BME280;74113;46.556;24.570;2024-02-28T11:22:40;98375.75;;;16.72;34.45
84032;BME280;74113;46.556;24.570;2024-02-28T11:25:09;98372.17;;;16.79;35.32
84032;BME280;74113;46.556;24.570;2024-02-28T11:27:48;98370.13;;;16.92;36.92
84032;BME280;74113;46.556;24.570;2024-02-28T11:30:17;98369.02;;;17.06;35.17
84032;BME280;74113;46.556;24.570;2024-02-28T11:32:46;98367.29;;;17.39;34.97
84032;BME280;74113;46.556;24.570;2024-02-28T11:35:15;98364.45;;;17.98;32.92
84032;BME280;74113;46.556;24.570;2024-02-28T11:37:47;98359.25;;;18.74;32.17
84032;BME280;74113;46.556;24.570;2024-02-28T11:40:15;98355.24;;;19.39;30.95
84032;BME280;74113;46.556;24.570;2024-02-28T11:42:44;98351.65;;;19.85;28.91
84032;BME280;74113;46.556;24.570;2024-02-28T11:45:12;98347.56;;;20.35;31.03
84032;BME280;74113;46.556;24.570;2024-02-28T11:47:41;98345.48;;;20.79;29.57
84032;BME280;74113;46.556;24.570;2024-02-28T11:50:09;98346.20;;;21.10;27.97
84032;BME280;74113;46.556;24.570;2024-02-28T11:52:39;98343.34;;;21.50;29.58
84032;BME280;74113;46.556;24.570;2024-02-28T11:55:09;98342.45;;;21.82;27.09
84032;BME280;74113;46.556;24.570;2024-02-28T11:57:38;98333.58;;;22.18;27.49
84032;BME280;74113;46.556;24.570;2024-02-28T12:00:08;98331.93;;;22.53;25.25
84032;BME280;74113;46.556;24.570;2024-02-28T12:02:38;98329.31;;;22.78;27.70
84032;BME280;74113;46.556;24.570;2024-02-28T12:05:07;98327.70;;;22.92;25.16
84032;BME280;74113;46.556;24.570;2024-02-28T12:07:37;98325.30;;;23.13;28.71
84032;BME280;74113;46.556;24.570;2024-02-28T12:10:08;98322.14;;;23.38;27.07
84032;BME280;74113;46.556;24.570;2024-02-28T12:12:39;98321.50;;;23.49;24.08
84032;BME280;74113;46.556;24.570;2024-02-28T12:15:09;98319.77;;;23.59;23.95
84032;BME280;74113;46.556;24.570;2024-02-28T12:17:38;98317.07;;;23.48;23.23
84032;BME280;74113;46.556;24.570;2024-02-28T12:20:08;98318.10;;;23.48;24.85
84032;BME280;74113;46.556;24.570;2024-02-28T12:22:39;98315.48;;;23.48;24.44
84032;BME280;74113;46.556;24.570;2024-02-28T12:25:09;98315.11;;;23.53;25.92
84032;BME280;74113;46.556;24.570;2024-02-28T12:27:38;98314.66;;;23.41;25.64
84032;BME280;74113;46.556;24.570;2024-02-28T12:30:07;98315.48;;;23.14;25.32
84032;BME280;74113;46.556;24.570;2024-02-28T12:32:36;98317.38;;;22.85;26.12
84032;BME280;74113;46.556;24.570;2024-02-28T12:35:05;98314.02;;;22.72;24.63
84032;BME280;74113;46.556;24.570;2024-02-28T12:37:35;98315.33;;;22.80;25.24
84032;BME280;74113;46.556;24.570;2024-02-28T12:40:04;98310.69;;;22.88;24.37
84032;BME280;74113;46.556;24.570;2024-02-28T12:42:34;98311.92;;;22.96;24.91
84032;BME280;74113;46.556;24.570;2024-02-28T12:45:05;98310.98;;;23.13;26.02
84032;BME280;74113;46.556;24.570;2024-02-28T12:47:33;98310.42;;;23.19;24.98
84032;BME280;74113;46.556;24.570;2024-02-28T12:50:03;98311.20;;;23.18;24.53
84032;BME280;74113;46.556;24.570;2024-02-28T12:52:31;98310.53;;;23.23;25.21
84032;BME280;74113;46.556;24.570;2024-02-28T12:55:00;98309.41;;;23.20;25.03
84032;BME280;74113;46.556;24.570;2024-02-28T12:57:29;98307.53;;;23.19;24.04
84032;BME280;74113;46.556;24.570;2024-02-28T12:59:58;98308.61;;;23.09;24.09
84032;BME280;74113;46.556;24.570;2024-02-28T13:02:27;98314.91;;;22.96;24.44
84032;BME280;74113;46.556;24.570;2024-02-28T13:04:55;98314.02;;;22.83;23.91
84032;BME280;74113;46.556;24.570;2024-02-28T13:07:24;98311.98;;;22.78;25.34